Terminal Aerodrome Forecast
Issued by NWS Cleveland, OH

Home | Current Version | Previous Version | Text Only | Print | Product List | Glossary Off
Versions: 1 2 3 4 5 6 7 8 9 10 11 12 13 14 15 16 17 18 19 20 21 22 23 24 25 26 27 28 29

000
FTUS41 KCLE 180900 AAA
TAFCLE
TAF AMD
KCLE 180907Z 1809/1912 25020G30KT P6SM SCT025
     FM181200 24023G33KT P6SM -SHSN SCT030 BKN040
     FM190000 24015G25KT P6SM BKN040
     FM190300 23013KT P6SM BKN040=

USA.gov is the U.S. government's official web portal to all federal, state and local government web resources and services.